Time;durP1;ratioP1;P1;durP2;ratioP2;P2;SDS_P1;SDS_P2;PMS_P1;PMS_P2;Temp;Humidity;BMP_temperature;BMP_pressure;BME280_temperature;BME280_humidity;BME280_pressure;Samples;Min_cycle;Max_cycle;Signal;HPM_P1;HPM_P2
2022/06/02 00:08:38;;;;;;;;;;;;;;;12.89;74.06;98974.19;3795029;93;20623;-85
2022/06/02 00:42:32;;;;;;;;;;;;;;;13.20;76.67;98995.45;4055762;86;20651;-85
2022/06/02 01:09:02;;;;;;;;;;;;;;;13.16;76.43;99087.33;3934504;89;20162;-86
2022/06/02 01:15:34;;;;;;;;;;;;;;;13.20;75.96;99088.91;3905846;89;20194;-86
2022/06/02 01:22:12;;;;;;;;;;;;;;;13.24;74.61;99086.17;3919864;89;20347;-85
2022/06/02 01:35:37;;;;;;;;;;;;;;;13.47;77.42;99081.09;3997684;86;20802;-86
2022/06/02 01:41:45;;;;;;;;;;;;;;;13.57;78.85;99085.82;4087911;86;20435;-86
2022/06/02 01:47:49;;;;;;;;;;;;;;;13.67;79.52;99097.44;4086078;86;20159;-86
2022/06/02 01:54:21;;;;;;;;;;;;;;;13.79;78.99;99099.20;4092056;86;20527;-86
2022/06/02 02:00:27;;;;;;;;;;;;;;;13.91;79.80;99093.30;3879484;90;20198;-86
2022/06/02 02:07:04;;;;;;;;;;;;;;;13.98;79.89;99095.25;3904607;88;20214;-86
2022/06/02 02:48:03;;;;;;;;;;;;;;;14.22;81.41;99099.16;4048381;86;20178;-86
2022/06/02 02:54:27;;;;;;;;;;;;;;;14.23;81.21;99112.53;4047413;86;20146;-87
2022/06/02 03:00:35;;;;;;;;;;;;;;;14.23;82.17;99132.38;4042712;86;20298;-86
2022/06/02 03:06:39;;;;;;;;;;;;;;;14.27;82.79;99118.83;4053173;86;20135;-86
2022/06/02 03:13:05;;;;;;;;;;;;;;;14.31;83.28;99114.70;4046903;86;20124;-85
2022/06/02 03:19:18;;;;;;;;;;;;;;;14.31;83.69;99110.57;4049465;87;20115;-86
2022/06/02 03:25:38;;;;;;;;;;;;;;;14.33;84.15;99088.94;4048313;87;20505;-85
2022/06/02 03:32:01;;;;;;;;;;;;;;;14.35;84.69;99080.47;4069836;86;20152;-86
2022/06/02 03:38:09;;;;;;;;;;;;;;;14.36;84.86;99083.40;4070986;86;21041;-86
2022/06/02 03:44:20;;;;;;;;;;;;;;;14.28;84.67;99097.59;4068156;86;20162;-83
2022/06/02 03:50:52;;;;;;;;;;;;;;;14.25;83.73;99106.66;4063636;86;20218;-84
2022/06/02 03:57:26;;;;;;;;;;;;;;;14.19;82.94;99100.72;4066984;86;20136;-84
2022/06/02 04:03:54;;;;;;;;;;;;;;;14.19;84.30;99086.37;4054154;86;20151;-85
2022/06/02 04:10:14;;;;;;;;;;;;;;;14.19;85.76;99082.82;4054739;86;20175;-85
2022/06/02 04:16:38;;;;;;;;;;;;;;;14.17;86.34;99090.10;4074058;86;20211;-85
2022/06/02 04:22:55;;;;;;;;;;;;;;;14.20;87.06;99106.44;3975289;88;20593;-84
2022/06/02 04:29:03;;;;;;;;;;;;;;;14.21;87.26;99101.11;4111566;85;20489;-84
2022/06/02 04:35:25;;;;;;;;;;;;;;;14.25;87.41;99112.92;4035991;87;20200;-85
2022/06/02 04:41:36;;;;;;;;;;;;;;;14.22;85.60;99125.31;4105938;85;20198;-84
2022/06/02 04:47:44;;;;;;;;;;;;;;;14.27;87.60;99121.58;4119465;84;20139;-84
2022/06/02 04:54:01;;;;;;;;;;;;;;;14.32;87.58;99121.77;4116787;84;20260;-86
2022/06/02 05:00:09;;;;;;;;;;;;;;;14.33;87.98;99121.38;4119932;85;20476;-86
2022/06/02 05:06:27;;;;;;;;;;;;;;;14.27;85.04;99135.96;4113657;85;20134;-85
2022/06/02 05:12:52;;;;;;;;;;;;;;;14.26;85.96;99145.38;4125991;85;20425;-86
2022/06/02 05:19:26;;;;;;;;;;;;;;;14.29;85.12;99145.39;4118261;85;20853;-87
2022/06/02 05:26:04;;;;;;;;;;;;;;;14.32;87.21;99147.92;4080903;85;20434;-86
2022/06/02 05:32:18;;;;;;;;;;;;;;;14.35;85.85;99145.18;4115996;85;20426;-85
2022/06/02 05:38:42;;;;;;;;;;;;;;;14.38;86.84;99136.12;4071567;85;20209;-86
2022/06/02 05:45:11;;;;;;;;;;;;;;;14.43;87.00;99134.92;4049432;86;20831;-85
2022/06/02 05:51:16;;;;;;;;;;;;;;;14.49;88.01;99138.84;4054588;87;20399;-86
2022/06/02 05:57:49;;;;;;;;;;;;;;;14.61;88.96;99154.36;4057889;86;20848;-86
2022/06/02 06:04:03;;;;;;;;;;;;;;;14.74;88.76;99158.27;4061275;87;20161;-85
2022/06/02 06:10:17;;;;;;;;;;;;;;;14.94;88.96;99151.72;4050822;86;20134;-86
2022/06/02 06:16:25;;;;;;;;;;;;;;;15.11;89.91;99157.75;4052263;87;20129;-85
2022/06/02 06:22:35;;;;;;;;;;;;;;;15.25;89.93;99161.20;4055154;87;20242;-86
2022/06/02 06:28:40;;;;;;;;;;;;;;;15.41;89.62;99169.06;4061203;87;20454;-86
2022/06/02 06:34:45;;;;;;;;;;;;;;;15.67;89.79;99171.26;4057486;86;20183;-86
2022/06/02 06:41:02;;;;;;;;;;;;;;;15.84;89.18;99180.01;4122876;85;20176;-86
2022/06/02 06:47:15;;;;;;;;;;;;;;;15.97;88.19;99185.25;4119045;85;20150;-86
2022/06/02 06:53:44;;;;;;;;;;;;;;;16.08;88.43;99192.06;4114863;85;20436;-87
2022/06/02 07:00:22;;;;;;;;;;;;;;;16.16;88.50;99205.39;4113838;85;20127;-86
2022/06/02 07:06:53;;;;;;;;;;;;;;;16.33;89.94;99205.07;4116939;85;20123;-87
2022/06/02 07:13:31;;;;;;;;;;;;;;;16.49;89.76;99224.70;4115910;85;20131;-87
2022/06/02 07:19:55;;;;;;;;;;;;;;;16.48;88.09;99225.29;4127640;85;20154;-86
2022/06/02 07:26:17;;;;;;;;;;;;;;;16.63;88.90;99234.24;4112485;84;20204;-86
2022/06/02 07:32:46;;;;;;;;;;;;;;;16.73;89.05;99230.58;4113845;85;20435;-86
2022/06/02 07:39:21;;;;;;;;;;;;;;;17.00;88.25;99237.81;4111453;85;20223;-86
2022/06/02 07:46:01;;;;;;;;;;;;;;;17.51;87.64;99241.59;4115043;85;20418;-86
2022/06/02 07:52:17;;;;;;;;;;;;;;;17.99;87.31;99244.28;4115628;85;20721;-85
2022/06/02 07:58:43;;;;;;;;;;;;;;;18.52;87.45;99244.85;4132395;85;20186;-86
2022/06/02 08:12:10;;;;;;;;;;;;;;;19.22;85.50;99260.80;4092858;85;20155;-85
2022/06/02 08:18:26;;;;;;;;;;;;;;;19.27;85.56;99275.58;4118360;85;20160;-85
2022/06/02 08:25:21;;;;;;;;;;;;;;;19.23;84.03;99289.52;4038356;87;20193;-85
2022/06/02 08:31:49;;;;;;;;;;;;;;;19.53;83.96;99291.37;4047118;87;20168;-85
2022/06/02 08:38:04;;;;;;;;;;;;;;;19.46;82.48;99296.45;3932333;89;20220;-86
2022/06/02 08:57:38;;;;;;;;;;;;;;;19.37;79.72;99306.55;3878896;91;20165;-86
2022/06/02 09:11:19;;;;;;;;;;;;;;;19.72;80.87;99309.98;3887552;87;20166;-87
2022/06/02 09:17:42;;;;;;;;;;;;;;;20.23;78.96;99311.31;4033901;86;20802;-88
2022/06/02 09:24:11;;;;;;;;;;;;;;;20.70;78.05;99317.53;4031150;87;20449;-86
2022/06/02 09:30:37;;;;;;;;;;;;;;;20.99;77.04;99314.83;4005967;87;20171;-88
2022/06/02 09:37:02;;;;;;;;;;;;;;;20.58;75.71;99320.22;4052235;86;20205;-87
2022/06/02 09:43:35;;;;;;;;;;;;;;;20.42;76.66;99318.81;4091204;85;20134;-87
2022/06/02 09:50:16;;;;;;;;;;;;;;;20.07;75.02;99323.94;4093471;85;20663;-87
2022/06/02 09:56:52;;;;;;;;;;;;;;;20.09;75.79;99334.62;4102972;85;20258;-87
2022/06/02 10:03:09;;;;;;;;;;;;;;;20.56;73.31;99335.16;4103572;85;20155;-88
2022/06/02 10:09:23;;;;;;;;;;;;;;;20.43;72.99;99342.61;4105161;85;20436;-87
2022/06/02 10:15:36;;;;;;;;;;;;;;;20.47;73.66;99343.33;4103491;85;20151;-87
2022/06/02 10:22:14;;;;;;;;;;;;;;;20.59;73.26;99342.04;4102732;85;20863;-88
2022/06/02 10:28:43;;;;;;;;;;;;;;;20.63;72.77;99348.28;4100865;85;20124;-88
2022/06/02 10:35:00;;;;;;;;;;;;;;;21.26;72.67;99349.52;4101173;85;20127;-86
2022/06/02 10:41:14;;;;;;;;;;;;;;;22.34;71.21;99345.44;4107500;85;20199;-88
2022/06/02 10:47:30;;;;;;;;;;;;;;;23.10;69.81;99345.56;4105048;85;20115;-88
2022/06/02 10:54:09;;;;;;;;;;;;;;;22.95;66.69;99352.87;4101854;85;20203;-88
2022/06/02 11:00:35;;;;;;;;;;;;;;;22.75;67.77;99348.95;4111881;85;20187;-88
2022/06/02 11:07:05;;;;;;;;;;;;;;;22.44;66.82;99349.92;4102325;84;20939;-88
2022/06/02 11:13:27;;;;;;;;;;;;;;;23.61;66.72;99349.02;4105458;85;20256;-87
2022/06/02 11:19:53;;;;;;;;;;;;;;;23.84;63.71;99349.95;4101884;85;20107;-89
2022/06/02 11:26:22;;;;;;;;;;;;;;;23.28;63.02;99356.96;4110955;85;20141;-88
2022/06/02 11:32:55;;;;;;;;;;;;;;;23.17;61.76;99362.09;4105952;85;20111;-87
2022/06/02 11:39:22;;;;;;;;;;;;;;;22.93;63.98;99357.51;4105828;84;20154;-88
2022/06/02 11:46:00;;;;;;;;;;;;;;;22.87;62.40;99358.52;4108293;85;20153;-88
2022/06/02 11:52:08;;;;;;;;;;;;;;;22.75;62.93;99366.30;4120277;85;20118;-87
2022/06/02 11:58:33;;;;;;;;;;;;;;;22.46;63.29;99372.55;4119024;85;20115;-87
2022/06/02 12:04:56;;;;;;;;;;;;;;;22.04;63.65;99376.02;4110696;85;20194;-88
2022/06/02 12:11:17;;;;;;;;;;;;;;;22.56;64.34;99373.67;4129196;85;20123;-87
2022/06/02 12:17:22;;;;;;;;;;;;;;;22.82;60.70;99388.38;4118225;85;20158;-87
2022/06/02 12:23:56;;;;;;;;;;;;;;;22.82;59.48;99387.77;4125683;85;20649;-88
2022/06/02 12:30:09;;;;;;;;;;;;;;;22.71;57.92;99396.31;4109087;85;20928;-87
2022/06/02 12:36:14;;;;;;;;;;;;;;;22.47;57.08;99397.25;4116361;85;20173;-87
2022/06/02 12:42:52;;;;;;;;;;;;;;;22.38;58.13;99401.28;4063547;86;20516;-87
2022/06/02 12:49:03;;;;;;;;;;;;;;;22.43;57.28;99398.55;4060899;86;20535;-86
2022/06/02 12:55:14;;;;;;;;;;;;;;;22.52;56.25;99402.28;4049567;85;20206;-88
2022/06/02 13:01:34;;;;;;;;;;;;;;;22.84;57.42;99390.12;4053263;87;20172;-87
2022/06/02 13:08:04;;;;;;;;;;;;;;;22.84;57.35;99399.28;4048831;87;20207;-88
2022/06/02 13:14:27;;;;;;;;;;;;;;;22.64;55.39;99402.92;4061286;87;20117;-88
2022/06/02 13:21:05;;;;;;;;;;;;;;;22.47;55.75;99389.48;4052732;87;20145;-88
2022/06/02 13:27:36;;;;;;;;;;;;;;;22.19;54.99;99386.15;4052527;87;20206;-87
2022/06/02 13:34:15;;;;;;;;;;;;;;;22.44;55.71;99394.55;4063480;86;20153;-88
2022/06/02 14:08:11;;;;;;;;;;;;;;;22.63;53.95;99387.38;3872274;87;20137;-87
2022/06/02 14:14:27;;;;;;;;;;;;;;;22.43;52.36;99392.38;4029580;87;20156;-86
2022/06/02 14:20:35;;;;;;;;;;;;;;;22.51;53.13;99388.74;4115098;85;20800;-87
2022/06/02 14:26:51;;;;;;;;;;;;;;;22.74;52.15;99380.86;4107107;85;20175;-88
2022/06/02 14:32:55;;;;;;;;;;;;;;;22.76;53.12;99380.41;4106309;85;20197;-86
2022/06/02 14:39:15;;;;;;;;;;;;;;;22.75;52.26;99377.45;4066192;85;20195;-88
2022/06/02 14:45:26;;;;;;;;;;;;;;;22.73;51.28;99379.91;4024608;87;20149;-87
2022/06/02 14:51:30;;;;;;;;;;;;;;;22.66;50.93;99385.73;4027841;87;20479;-87
2022/06/02 14:57:41;;;;;;;;;;;;;;;22.65;50.28;99386.33;4024356;87;20148;-87
2022/06/02 15:03:52;;;;;;;;;;;;;;;22.65;50.77;99384.14;4025577;87;20866;-87
2022/06/02 15:10:12;;;;;;;;;;;;;;;22.72;50.89;99379.75;4026600;87;20845;-86
2022/06/02 15:16:36;;;;;;;;;;;;;;;22.63;49.61;99379.02;4028545;87;20123;-87
2022/06/02 15:22:53;;;;;;;;;;;;;;;22.53;50.15;99376.56;4027792;87;20147;-87
2022/06/02 15:29:04;;;;;;;;;;;;;;;22.31;50.54;99377.02;4028665;87;20139;-87
2022/06/02 15:35:34;;;;;;;;;;;;;;;22.13;50.51;99382.34;4029673;87;20488;-87
2022/06/02 15:41:57;;;;;;;;;;;;;;;21.91;48.73;99373.80;4078769;85;20123;-86
2022/06/02 15:48:23;;;;;;;;;;;;;;;21.79;49.83;99379.33;4115078;85;20221;-87
2022/06/02 15:54:45;;;;;;;;;;;;;;;21.54;48.79;99394.70;4115928;85;20584;-87
2022/06/02 16:01:13;;;;;;;;;;;;;;;21.28;47.79;99397.17;4109792;85;20238;-88
2022/06/02 16:07:35;;;;;;;;;;;;;;;21.12;47.90;99381.89;4120002;85;20180;-88
2022/06/02 16:14:13;;;;;;;;;;;;;;;21.00;49.62;99384.59;4110892;85;20529;-87
2022/06/02 16:20:52;;;;;;;;;;;;;;;20.91;48.44;99383.77;4114919;85;20451;-87
2022/06/02 16:27:07;;;;;;;;;;;;;;;20.89;47.66;99388.98;4112199;85;20111;-86
2022/06/02 16:33:32;;;;;;;;;;;;;;;20.86;47.98;99396.05;4114634;85;20170;-87
2022/06/02 16:46:53;;;;;;;;;;;;;;;20.65;48.14;99401.49;4101276;85;20127;-86
2022/06/02 16:59:51;;;;;;;;;;;;;;;20.47;48.63;99408.67;4112888;85;20214;-87
2022/06/02 17:06:02;;;;;;;;;;;;;;;20.42;49.13;99414.74;4113413;85;20115;-87
2022/06/02 17:12:07;;;;;;;;;;;;;;;20.37;49.23;99415.24;4113806;85;20593;-86
2022/06/02 17:18:41;;;;;;;;;;;;;;;20.31;49.12;99416.37;4114322;85;20620;-87
2022/06/02 17:24:49;;;;;;;;;;;;;;;20.30;50.61;99414.78;4105790;85;20223;-87
2022/06/02 17:31:20;;;;;;;;;;;;;;;20.23;50.15;99421.10;4041541;87;20188;-87
2022/06/02 17:37:51;;;;;;;;;;;;;;;20.20;51.65;99413.03;4115681;85;20156;-86
2022/06/02 17:44:22;;;;;;;;;;;;;;;20.10;50.30;99421.73;3927852;85;10000148;-86
2022/06/02 17:50:43;;;;;;;;;;;;;;;20.03;52.37;99421.86;4027705;87;20156;-86
2022/06/02 18:04:10;;;;;;;;;;;;;;;19.72;50.85;99421.09;4036702;86;20195;-86
2022/06/02 18:43:33;;;;;;;;;;;;;;;18.91;50.61;99464.68;4062994;85;20156;-86
2022/06/02 18:57:00;;;;;;;;;;;;;;;18.40;52.87;99483.20;4179367;85;20145;-85
2022/06/02 19:03:17;;;;;;;;;;;;;;;18.08;51.94;99494.45;4179338;85;20104;-85
2022/06/02 19:16:57;;;;;;;;;;;;;;;17.45;52.75;99508.32;3791953;92;20125;-85
2022/06/02 19:23:38;;;;;;;;;;;;;;;17.20;53.74;99525.09;3976716;87;20119;-85
2022/06/02 19:37:02;;;;;;;;;;;;;;;16.72;55.44;99550.48;4114267;85;20734;-86
2022/06/02 19:43:42;;;;;;;;;;;;;;;16.46;55.97;99559.87;4001635;85;9999928;-86
2022/06/02 19:50:06;;;;;;;;;;;;;;;16.33;55.22;99560.07;4125190;85;20888;-86
2022/06/02 20:24:30;;;;;;;;;;;;;;;15.44;60.38;99601.38;3970157;88;20491;-85
2022/06/02 20:30:46;;;;;;;;;;;;;;;15.29;59.28;99603.28;3984711;88;20235;-85
2022/06/02 20:43:53;;;;;;;;;;;;;;;14.90;60.77;99609.87;4029835;86;20444;-85
2022/06/02 20:57:23;;;;;;;;;;;;;;;14.78;63.34;99619.87;4107898;85;20145;-85
2022/06/02 21:44:45;;;;;;;;;;;;;;;13.49;64.84;99628.78;4106506;85;20154;-86
2022/06/02 21:51:14;;;;;;;;;;;;;;;13.27;65.73;99629.16;4129522;86;20104;-85
2022/06/02 22:38:19;;;;;;;;;;;;;;;11.78;70.01;99658.28;4110988;85;20154;-85
2022/06/02 22:44:47;;;;;;;;;;;;;;;11.76;69.69;99671.59;4103569;85;20182;-85
2022/06/02 22:51:02;;;;;;;;;;;;;;;11.67;71.28;99675.93;4074195;86;20495;-85
2022/06/02 23:05:11;;;;;;;;;;;;;;;11.27;70.86;99678.31;4092394;86;20141;-85
2022/06/02 23:25:59;;;;;;;;;;;;;;;11.01;72.88;99684.45;4021327;86;20474;-85
2022/06/02 23:38:49;;;;;;;;;;;;;;;10.51;73.64;99680.45;4092793;87;20160;-84
2022/06/02 23:45:34;;;;;;;;;;;;;;;10.42;73.74;99684.53;4089510;85;20570;-84
2022/06/02 23:52:19;;;;;;;;;;;;;;;10.33;74.07;99695.69;4112117;84;20142;-85
2022/06/02 23:58:43;;;;;;;;;;;;;;;10.30;75.04;99694.23;4084717;85;20142;-85
